Time;durP1;ratioP1;P1;durP2;ratioP2;P2;SDS_P1;SDS_P2;PMS_P1;PMS_P2;Temp;Humidity;BMP_temperature;BMP_pressure;BME280_temperature;BME280_humidity;BME280_pressure;Samples;Min_cycle;Max_cycle;Signal;HPM_P1;HPM_P2
2022/12/10 00:04:21;;;;;;;24.40;16.70;;;;;;;0.37;94.74;97366.38;422334;1296;111276;-39
2022/12/10 00:14:28;;;;;;;32.20;21.20;;;;;;;0.37;94.75;97357.82;422102;1288;107442;-40
2022/12/10 00:24:35;;;;;;;29.60;20.30;;;;;;;0.38;94.78;97366.10;422057;1286;97478;-40
2022/12/10 00:34:41;;;;;;;33.50;20.30;;;;;;;0.39;95.10;97351.94;421533;1289;109663;-40
2022/12/10 00:54:53;;;;;;;54.80;31.40;;;;;;;0.37;95.09;97370.09;421692;1292;97879;-39
2022/12/10 01:04:59;;;;;;;55.60;31.80;;;;;;;0.28;95.25;97375.72;422205;1296;111661;-37
2022/12/10 01:15:05;;;;;;;47.80;27.80;;;;;;;0.27;95.14;97382.55;422084;1296;107411;-38
2022/12/10 01:25:12;;;;;;;39.30;24.60;;;;;;;0.31;94.99;97387.25;422233;1286;97879;-38
2022/12/10 01:35:19;;;;;;;32.50;21.90;;;;;;;0.38;95.00;97381.10;422104;1288;109241;-38
2022/12/10 01:45:26;;;;;;;42.50;24.50;;;;;;;0.36;95.06;97385.54;422248;1292;107103;-38
2022/12/10 01:55:39;;;;;;;32.90;19.80;;;;;;;0.24;95.38;97374.91;422298;1294;97876;-40
2022/12/10 02:05:53;;;;;;;31.00;18.70;;;;;;;0.24;95.32;97376.55;422270;1293;109431;-38
2022/12/10 02:15:57;;;;;;;28.40;19.20;;;;;;;0.25;95.48;97370.20;422223;1287;108332;-40
2022/12/10 02:26:02;;;;;;;24.00;16.60;;;;;;;0.28;95.48;97361.85;423075;1266;97650;-39
2022/12/10 02:36:13;;;;;;;38.20;22.60;;;;;;;0.22;95.57;97363.16;421914;1281;368146;-40
2022/12/10 02:46:27;;;;;;;25.80;18.90;;;;;;;0.19;95.72;97367.66;422066;1279;97849;-39
2022/12/10 02:56:33;;;;;;;26.10;17.40;;;;;;;0.26;95.62;97383.59;422188;1287;110826;-38
2022/12/10 03:06:41;;;;;;;30.30;19.10;;;;;;;0.32;95.65;97390.58;422187;1287;107753;-39
2022/12/10 03:16:50;;;;;;;42.10;23.50;;;;;;;0.22;95.68;97380.29;422147;1288;98100;-39
2022/12/10 03:26:58;;;;;;;30.90;20.70;;;;;;;0.21;95.83;97399.95;422148;1295;109839;-39
2022/12/10 03:37:07;;;;;;;34.30;19.80;;;;;;;0.24;95.70;97399.65;422234;1287;107102;-40
2022/12/10 03:47:15;;;;;;;34.50;23.20;;;;;;;0.26;95.63;97400.95;422234;1295;97976;-40
2022/12/10 03:57:22;;;;;;;44.30;25.70;;;;;;;0.31;95.72;97423.17;422069;1294;105948;-39
2022/12/10 04:07:31;;;;;;;51.30;29.20;;;;;;;0.33;95.67;97429.65;422207;1291;97876;-38
2022/12/10 04:17:38;;;;;;;67.20;34.70;;;;;;;0.26;95.68;97435.34;422234;1289;110640;-38
2022/12/10 04:27:45;;;;;;;50.40;27.90;;;;;;;0.17;95.57;97437.33;422076;1296;108313;-40
2022/12/10 04:37:52;;;;;;;54.20;29.50;;;;;;;0.16;95.71;97446.85;422060;1297;97529;-39
2022/12/10 04:47:59;;;;;;;44.90;27.00;;;;;;;0.21;95.77;97443.50;422123;1296;110387;-39
2022/12/10 04:58:05;;;;;;;43.50;25.10;;;;;;;0.20;95.62;97450.70;421961;1296;108449;-38
2022/12/10 05:08:12;;;;;;;45.70;24.90;;;;;;;0.21;95.58;97469.78;422195;1295;96712;-39
2022/12/10 05:18:20;;;;;;;63.90;31.80;;;;;;;0.21;95.75;97476.63;422122;1294;108015;-38
2022/12/10 05:28:28;;;;;;;75.00;31.30;;;;;;;0.09;95.93;97477.21;422058;1294;97733;-38
2022/12/10 05:38:35;;;;;;;48.60;26.30;;;;;;;0.05;95.77;97482.63;422121;1288;96772;-37
2022/12/10 05:48:42;;;;;;;47.40;23.70;;;;;;;0.09;95.71;97492.33;422158;1287;108037;-38
2022/12/10 05:58:52;;;;;;;46.50;24.40;;;;;;;0.14;95.79;97498.98;422002;1282;97838;-40
2022/12/10 06:09:00;;;;;;;54.00;25.40;;;;;;;0.17;95.80;97495.99;422159;1294;109379;-39
2022/12/10 06:19:07;;;;;;;56.10;27.70;;;;;;;0.08;95.92;97497.20;422263;1295;108286;-38
2022/12/10 06:39:21;;;;;;;42.30;24.00;;;;;;;0.02;95.85;97501.65;422067;1288;109631;-41
2022/12/10 06:49:28;;;;;;;39.10;23.20;;;;;;;0.03;95.98;97486.73;422217;1288;100186;-39
2022/12/10 07:09:41;;;;;;;66.90;29.30;;;;;;;0.03;96.15;97508.16;422129;1294;107907;-38
2022/12/10 07:19:49;;;;;;;54.10;26.00;;;;;;;-0.01;96.11;97509.67;422188;1294;97864;-39
2022/12/10 07:29:56;;;;;;;43.00;24.00;;;;;;;0.05;96.00;97525.52;422167;1294;110480;-39
2022/12/10 07:40:05;;;;;;;43.60;25.70;;;;;;;0.13;95.97;97557.36;422092;1280;108783;-39
2022/12/10 07:50:13;;;;;;;56.10;28.00;;;;;;;0.22;95.99;97560.98;422235;1286;96668;-39
2022/12/10 08:10:28;;;;;;;41.80;22.50;;;;;;;0.04;95.92;97564.83;422243;1295;97544;-41
2022/12/10 08:20:36;;;;;;;38.60;21.60;;;;;;;0.11;96.15;97577.18;422124;1294;109485;-39
2022/12/10 08:30:45;;;;;;;58.70;28.20;;;;;;;0.08;96.13;97583.80;422151;1295;107737;-39
2022/12/10 08:40:53;;;;;;;45.20;25.80;;;;;;;0.04;96.12;97591.38;422153;1294;97913;-38
2022/12/10 08:51:02;;;;;;;45.10;24.60;;;;;;;0.09;96.13;97595.05;422215;1290;108396;-39
2022/12/10 09:01:07;;;;;;;52.30;24.00;;;;;;;0.16;96.12;97599.45;422206;1295;97804;-40
2022/12/10 09:11:18;;;;;;;63.50;30.60;;;;;;;0.07;96.25;97586.35;422254;1296;111078;-39
2022/12/10 09:21:26;;;;;;;47.80;24.00;;;;;;;0.04;96.21;97577.83;422225;1296;107720;-39
2022/12/10 09:31:33;;;;;;;42.50;21.20;;;;;;;0.03;96.26;97568.89;422315;1287;97229;-38
2022/12/10 09:41:47;;;;;;;44.70;21.30;;;;;;;0.04;96.36;97567.66;422313;1288;108944;-39
2022/12/10 10:02:02;;;;;;;40.60;21.40;;;;;;;0.00;96.52;97551.27;422278;1288;97902;-39
2022/12/10 10:12:09;;;;;;;42.00;20.00;;;;;;;0.00;96.35;97556.11;422280;1295;107550;-39
2022/12/10 10:22:16;;;;;;;47.40;23.40;;;;;;;0.09;96.54;97556.14;422207;1281;97167;-40
2022/12/10 10:32:25;;;;;;;61.10;27.30;;;;;;;0.10;96.54;97538.79;422170;1293;108595;-39
2022/12/10 10:42:35;;;;;;;39.40;19.90;;;;;;;0.10;96.46;97532.06;422156;1296;109710;-39
2022/12/10 10:52:44;;;;;;;40.40;21.60;;;;;;;0.12;96.47;97546.56;422080;1288;97866;-39
2022/12/10 11:02:52;;;;;;;53.90;25.10;;;;;;;0.16;96.60;97541.38;422199;1294;110219;-39
2022/12/10 11:13:04;;;;;;;50.70;23.50;;;;;;;0.08;96.58;97538.70;422193;1287;106828;-40
2022/12/10 11:33:19;;;;;;;57.50;25.90;;;;;;;0.29;96.50;97539.71;422133;1296;109450;-39
2022/12/10 11:43:43;;;;;;;52.20;24.60;;;;;;;0.16;96.49;97528.54;422104;1296;97512;-40
2022/12/10 12:04:03;;;;;;;47.40;22.80;;;;;;;0.15;96.36;97541.45;422158;1287;107329;-39
2022/12/10 12:24:25;;;;;;;55.10;25.20;;;;;;;0.13;96.47;97543.16;422253;1284;97867;-38
2022/12/10 12:34:38;;;;;;;45.20;23.20;;;;;;;0.17;96.48;97549.63;422215;1292;107346;-40
2022/12/10 12:44:49;;;;;;;48.80;24.40;;;;;;;0.15;96.31;97547.70;422186;1296;97003;-39
2022/12/10 12:55:00;;;;;;;74.40;33.20;;;;;;;0.15;96.59;97535.97;422137;1298;110078;-40
2022/12/10 13:05:14;;;;;;;54.40;26.60;;;;;;;0.05;96.45;97531.89;422171;1287;110262;-40
2022/12/10 13:15:19;;;;;;;45.60;22.90;;;;;;;0.04;96.50;97531.95;422180;1287;97504;-40
2022/12/10 13:57:10;;;;;;;49.90;25.50;;;;;;;0.03;96.75;97554.19;422151;1297;107044;-38
2022/12/10 14:07:18;;;;;;;72.10;32.20;;;;;;;0.02;96.83;97556.21;422102;1298;97862;-39
2022/12/10 14:17:24;;;;;;;52.20;27.60;;;;;;;-0.07;96.93;97566.36;422279;1287;97737;-39
2022/12/10 14:37:40;;;;;;;51.80;24.80;;;;;;;-0.11;96.89;97582.21;421888;1292;268166;-38
2022/12/10 14:47:48;;;;;;;74.40;33.10;;;;;;;-0.13;96.94;97586.18;422208;1287;111988;-39
2022/12/10 14:58:00;;;;;;;50.20;25.90;;;;;;;-0.16;97.02;97603.99;422174;1286;109406;-39
2022/12/10 15:08:08;;;;;;;52.90;26.40;;;;;;;-0.13;96.91;97602.77;422166;1294;97959;-39
2022/12/10 15:18:20;;;;;;;65.90;27.90;;;;;;;-0.10;97.06;97600.80;422133;1296;107949;-39
2022/12/10 15:28:25;;;;;;;75.10;30.50;;;;;;;-0.15;97.22;97612.23;422192;1298;97863;-41
2022/12/10 15:38:32;;;;;;;58.00;26.40;;;;;;;-0.15;97.05;97612.88;422227;1291;97520;-38
2022/12/10 15:48:40;;;;;;;58.40;27.20;;;;;;;-0.14;97.15;97608.02;422201;1295;106569;-38
2022/12/10 15:58:47;;;;;;;60.40;31.20;;;;;;;-0.16;97.10;97599.67;422112;1284;97791;-39
2022/12/10 16:08:54;;;;;;;74.00;32.90;;;;;;;-0.19;97.43;97596.73;422189;1296;111017;-38
2022/12/10 16:19:00;;;;;;;49.90;25.40;;;;;;;-0.22;97.16;97608.54;422247;1289;109347;-39
2022/12/10 16:29:08;;;;;;;50.70;23.60;;;;;;;-0.18;97.10;97611.73;422230;1292;97892;-39
2022/12/10 16:39:15;;;;;;;40.10;21.20;;;;;;;-0.19;97.24;97603.94;422284;1295;107588;-39
2022/12/10 16:49:23;;;;;;;51.00;23.60;;;;;;;-0.18;97.30;97600.78;422144;1294;97680;-39
2022/12/10 17:09:37;;;;;;;48.70;25.80;;;;;;;-0.25;97.34;97591.05;422139;1281;108671;-38
2022/12/10 17:19:45;;;;;;;42.30;22.00;;;;;;;-0.18;97.36;97578.48;422083;1287;97890;-38
2022/12/10 17:29:53;;;;;;;42.30;21.00;;;;;;;-0.07;97.41;97580.16;422186;1295;109392;-37
2022/12/10 17:40:00;;;;;;;56.40;26.10;;;;;;;-0.09;97.24;97584.50;422214;1289;108282;-39
2022/12/10 17:50:16;;;;;;;45.30;20.80;;;;;;;-0.17;97.42;97588.75;422124;1296;97483;-39
2022/12/10 18:00:27;;;;;;;37.60;17.10;;;;;;;-0.22;97.19;97591.23;422190;1292;109100;-39
2022/12/10 18:10:36;;;;;;;40.10;22.20;;;;;;;-0.19;97.17;97604.92;422195;1294;107696;-38
2022/12/10 18:40:55;;;;;;;41.70;20.70;;;;;;;-0.28;97.25;97581.41;422177;1286;97902;-37
2022/12/10 18:51:02;;;;;;;40.90;17.90;;;;;;;-0.25;97.38;97584.71;422271;1288;109883;-39
2022/12/10 19:01:12;;;;;;;41.50;19.40;;;;;;;-0.18;97.43;97583.71;422173;1288;107779;-39
2022/12/10 19:11:21;;;;;;;45.50;22.10;;;;;;;-0.17;97.17;97591.88;422209;1288;97103;-38
2022/12/10 19:21:28;;;;;;;53.30;23.50;;;;;;;-0.21;97.47;97596.55;422188;1286;106916;-42
2022/12/10 19:31:36;;;;;;;33.00;17.50;;;;;;;-0.30;97.32;97584.39;422231;1280;97835;-38
2022/12/10 19:41:43;;;;;;;36.10;19.00;;;;;;;-0.32;97.34;97579.23;422156;1288;110832;-38
2022/12/10 19:51:51;;;;;;;36.20;19.30;;;;;;;-0.23;97.38;97578.00;422066;1288;109057;-38
2022/12/10 20:01:58;;;;;;;37.30;19.40;;;;;;;-0.15;97.47;97585.30;422161;1292;97491;-39
2022/12/10 20:12:04;;;;;;;57.30;24.70;;;;;;;-0.10;97.41;97590.41;422411;1293;108582;-38
2022/12/10 20:22:11;;;;;;;54.10;24.30;;;;;;;-0.23;97.37;97586.19;422279;1296;97867;-38
2022/12/10 20:32:19;;;;;;;39.70;20.30;;;;;;;-0.29;97.23;97579.29;422178;1294;97173;-37
2022/12/10 20:42:26;;;;;;;36.70;18.90;;;;;;;-0.30;97.16;97576.84;422082;1295;110696;-37
2022/12/10 20:52:33;;;;;;;50.30;21.00;;;;;;;-0.29;97.36;97557.31;422143;1287;96874;-39
2022/12/10 21:02:40;;;;;;;43.00;20.70;;;;;;;-0.30;97.55;97551.98;422122;1298;110872;-39
2022/12/10 21:12:47;;;;;;;64.00;26.40;;;;;;;-0.35;97.69;97553.67;422223;1294;108137;-39
2022/12/10 21:22:55;;;;;;;48.20;22.80;;;;;;;-0.36;97.61;97573.84;422131;1296;97918;-37
2022/12/10 21:33:02;;;;;;;52.70;21.50;;;;;;;-0.31;97.56;97566.48;422192;1280;107709;-39
2022/12/10 21:43:20;;;;;;;53.30;21.30;;;;;;;-0.28;97.70;97564.02;422143;1287;97862;-39
2022/12/10 21:53:27;;;;;;;47.10;20.00;;;;;;;-0.29;97.49;97562.42;422171;1286;110450;-39
2022/12/10 22:03:34;;;;;;;67.70;25.50;;;;;;;-0.32;97.73;97559.92;422122;1288;108511;-40
2022/12/10 22:13:43;;;;;;;75.30;25.90;;;;;;;-0.41;98.02;97557.34;422179;1296;97156;-38
2022/12/10 22:23:49;;;;;;;61.60;23.50;;;;;;;-0.42;97.70;97546.42;422085;1289;110236;-39
2022/12/10 22:33:56;;;;;;;45.60;22.60;;;;;;;-0.40;97.84;97544.11;422029;1287;108275;-39
2022/12/10 22:44:03;;;;;;;46.60;18.50;;;;;;;-0.34;97.65;97542.64;422179;1287;97986;-39
2022/12/10 22:54:10;;;;;;;52.90;23.20;;;;;;;-0.39;97.88;97529.30;422302;1298;107451;-40
2022/12/10 23:04:17;;;;;;;48.70;21.10;;;;;;;-0.43;97.99;97530.55;422121;1287;96681;-38
2022/12/10 23:14:25;;;;;;;37.20;18.70;;;;;;;-0.43;98.09;97531.43;422168;1287;110712;-39
2022/12/10 23:24:31;;;;;;;44.80;18.00;;;;;;;-0.42;97.81;97520.26;422015;1286;108192;-42
2022/12/10 23:34:38;;;;;;;56.90;22.10;;;;;;;-0.39;97.93;97512.97;422152;1295;97886;-38
2022/12/10 23:44:45;;;;;;;74.40;27.40;;;;;;;-0.41;97.97;97508.23;422330;1294;107649;-39
2022/12/10 23:54:52;;;;;;;56.00;22.70;;;;;;;-0.51;97.94;97502.83;422066;1288;97762;-38
